Terminal Aerodrome Forecast
Issued by NWS

Home | Current Version | Previous Version | Text Only | Print | Product List | Glossary Off
Versions: 1 2 3 4 5 6 7 8 9 10 11 12 13 14 15 16

000
FTUS43 KBIS 181700
TAFDIK
TAF
KDIK 181734Z 1818/1918 17016KT P6SM FEW200
     FM190000 18012KT P6SM BKN110
     FM190300 17007KT P6SM VCTS BKN110CB
     FM190600 21007KT P6SM BKN100
     FM191600 29014G24KT P6SM SCT100=

USA.gov is the U.S. government's official web portal to all federal, state and local government web resources and services.